Time,TemperatureF,DewpointF,PressureIn,WindDirection,WindDirectionDegrees,WindSpeedMPH,WindSpeedGustMPH,Humidity,HourlyPrecipIn,Conditions,Clouds,dailyrainin,SoftwareType,DateUTC
2013-02-13 00:30:00,39.6,25.6,30.09,SSE,158,0.0,0.0,57,0.00,,SKC,0.00,VWS V14.01,2013-02-13 06:30:00,
2013-02-13 00:38:00,39.6,25.6,30.09,SSE,158,0.0,0.0,57,0.00,,SKC,0.00,VWS V14.01,2013-02-13 06:38:00,
2013-02-13 00:44:00,39.6,25.6,30.09,SSE,158,0.0,0.0,57,0.00,,SKC,0.00,VWS V14.01,2013-02-13 06:44:00,
2013-02-13 01:02:00,39.6,25.6,30.09,SSE,158,0.0,0.0,57,0.00,,SKC,0.00,VWS V14.01,2013-02-13 07:02:00,
2013-02-13 01:12:00,39.6,25.6,30.09,SSE,158,0.0,0.0,57,0.00,,SKC,0.00,VWS V14.01,2013-02-13 07:12:00,
2013-02-13 01:28:00,39.6,25.6,30.09,SSE,158,0.0,0.0,57,0.00,,SKC,0.00,VWS V14.01,2013-02-13 07:28:00,
2013-02-13 01:33:00,39.6,25.6,30.09,SSE,158,0.0,0.0,57,0.00,,SKC,0.00,VWS V14.01,2013-02-13 07:33:00,
2013-02-13 01:47:00,39.6,25.6,30.09,SSE,158,0.0,0.0,57,0.00,,SKC,0.00,VWS V14.01,2013-02-13 07:47:00,
2013-02-13 02:02:00,39.6,25.6,30.09,SSE,158,0.0,0.0,57,0.00,,SKC,0.00,VWS V14.01,2013-02-13 08:02:00,
2013-02-13 02:11:00,39.6,25.6,30.09,SSE,158,0.0,0.0,57,0.00,,SKC,0.00,VWS V14.01,2013-02-13 08:11:00,
2013-02-13 02:27:00,39.6,25.6,30.09,SSE,158,0.0,0.0,57,0.00,,SKC,0.00,VWS V14.01,2013-02-13 08:27:00,
2013-02-13 02:32:00,39.6,25.6,30.09,SSE,158,0.0,0.0,57,0.00,,SKC,0.00,VWS V14.01,2013-02-13 08:32:00,
2013-02-13 02:38:00,39.6,25.6,30.09,SSE,158,0.0,0.0,57,0.00,,SKC,0.00,VWS V14.01,2013-02-13 08:38:00,
2013-02-13 02:43:00,39.6,25.6,30.09,SSE,158,0.0,0.0,57,0.00,,SKC,0.00,VWS V14.01,2013-02-13 08:43:00,
2013-02-13 03:11:00,39.6,25.6,30.09,SSE,158,0.0,0.0,57,0.00,,SKC,0.00,VWS V14.01,2013-02-13 09:11:00,
2013-02-13 04:03:00,39.6,25.6,30.09,SSE,158,0.0,0.0,57,0.00,,SKC,0.00,VWS V14.01,2013-02-13 10:03:00,
2013-02-13 05:36:00,39.6,25.6,30.09,SSE,158,0.0,0.0,57,0.00,,SKC,0.00,VWS V14.01,2013-02-13 11:36:00,
2013-02-13 06:11:00,39.6,26.8,30.09,NE,45,0.0,0.0,60,0.00,,SKC,0.00,VWS V14.01,2013-02-13 12:11:00,
2013-02-13 06:16:00,37.4,27.1,30.00,WSW,248,0.0,0.0,66,0.00,,SKC,0.00,VWS V14.01,2013-02-13 12:16:00,
2013-02-13 06:21:00,37.4,27.5,30.00,WSW,248,0.9,3.6,67,0.00,,SKC,0.00,VWS V14.01,2013-02-13 12:21:00,
2013-02-13 06:26:00,37.4,27.5,30.00,SW,225,0.0,0.0,67,0.00,,SKC,0.00,VWS V14.01,2013-02-13 12:26:00,
2013-02-13 06:31:00,37.4,27.8,30.00,West,270,1.3,5.4,68,0.00,,SKC,0.00,VWS V14.01,2013-02-13 12:31:00,
2013-02-13 06:36:00,37.4,28.2,30.00,West,270,0.0,0.0,69,0.00,,SKC,0.00,VWS V14.01,2013-02-13 12:36:00,
2013-02-13 06:41:00,37.4,28.2,30.00,WSW,248,1.3,5.4,69,0.00,,SKC,0.00,VWS V14.01,2013-02-13 12:41:00,
2013-02-13 06:46:00,37.4,28.5,30.00,WSW,248,1.3,5.4,70,0.00,,SKC,0.00,VWS V14.01,2013-02-13 12:46:00,
2013-02-13 06:51:00,37.2,28.4,30.00,SSW,202,1.6,6.3,70,0.00,,SKC,0.00,VWS V14.01,2013-02-13 12:51:00,
2013-02-13 06:56:00,37.2,28.7,30.00,West,270,0.0,0.0,71,0.00,,SKC,0.00,VWS V14.01,2013-02-13 12:56:00,
2013-02-13 07:01:00,37.0,28.5,30.00,WSW,248,1.3,5.4,71,0.00,,SKC,0.00,VWS V14.01,2013-02-13 13:01:00,
2013-02-13 07:06:00,37.2,29.0,30.03,West,270,0.0,0.0,72,0.00,,SKC,0.00,VWS V14.01,2013-02-13 13:06:00,
2013-02-13 07:11:00,37.2,29.0,30.03,WSW,248,2.2,9.0,72,0.00,,SKC,0.00,VWS V14.01,2013-02-13 13:11:00,
2013-02-13 07:16:00,37.4,29.2,30.03,SW,225,1.3,5.4,72,0.00,,SKC,0.00,VWS V14.01,2013-02-13 13:16:00,
2013-02-13 07:21:00,37.4,29.5,30.03,WSW,248,1.6,6.3,73,0.00,,SKC,0.00,VWS V14.01,2013-02-13 13:21:00,
2013-02-13 07:26:00,37.4,29.5,30.03,SSW,202,0.9,3.6,73,0.00,,SKC,0.00,VWS V14.01,2013-02-13 13:26:00,
2013-02-13 07:31:00,37.6,29.7,30.03,SW,225,1.6,6.3,73,0.00,,SKC,0.00,VWS V14.01,2013-02-13 13:31:00,
2013-02-13 07:36:00,37.6,29.7,30.00,WSW,248,0.0,0.0,73,0.00,,SKC,0.00,VWS V14.01,2013-02-13 13:36:00,
2013-02-13 07:41:00,37.8,29.9,30.00,WSW,248,1.3,5.4,73,0.00,,SKC,0.00,VWS V14.01,2013-02-13 13:41:00,
2013-02-13 07:46:00,37.9,30.1,30.00,West,270,1.3,5.4,73,0.00,,SKC,0.00,VWS V14.01,2013-02-13 13:46:00,
2013-02-13 07:51:00,37.9,30.1,30.03,WSW,248,1.3,5.4,73,0.00,,SKC,0.00,VWS V14.01,2013-02-13 13:51:00,
2013-02-13 07:56:00,38.1,30.2,30.03,WSW,248,1.6,6.3,73,0.00,,SKC,0.00,VWS V14.01,2013-02-13 13:56:00,
2013-02-13 08:01:00,38.1,30.2,30.03,SSW,202,3.6,14.3,73,0.00,,SKC,0.00,VWS V14.01,2013-02-13 14:01:00,
2013-02-13 08:06:00,38.3,30.4,30.03,SW,225,2.0,8.1,73,0.00,,SKC,0.00,VWS V14.01,2013-02-13 14:06:00,
2013-02-13 08:11:00,38.3,30.4,30.03,WSW,248,2.0,8.1,73,0.00,,SKC,0.00,VWS V14.01,2013-02-13 14:11:00,
2013-02-13 08:16:00,38.5,30.6,30.03,WSW,248,1.6,6.3,73,0.00,,SKC,0.00,VWS V14.01,2013-02-13 14:16:00,
2013-02-13 08:21:00,38.5,30.6,30.03,West,270,3.8,15.2,73,0.00,,SKC,0.00,VWS V14.01,2013-02-13 14:21:00,
2013-02-13 08:26:00,38.5,30.2,30.03,West,270,3.1,12.5,72,0.00,,SKC,0.00,VWS V14.01,2013-02-13 14:26:00,
2013-02-13 08:31:00,38.5,30.2,30.03,SW,225,1.6,6.3,72,0.00,,SKC,0.00,VWS V14.01,2013-02-13 14:31:00,
2013-02-13 08:36:00,38.5,29.9,30.03,West,270,1.1,4.5,71,0.00,,SKC,0.00,VWS V14.01,2013-02-13 14:36:00,
2013-02-13 08:41:00,38.3,29.7,30.03,West,270,3.1,12.5,71,0.00,,SKC,0.00,VWS V14.01,2013-02-13 14:41:00,
2013-02-13 08:46:00,38.5,29.9,30.03,WSW,248,2.5,9.8,71,0.00,,SKC,0.00,VWS V14.01,2013-02-13 14:46:00,
2013-02-13 08:51:00,39.0,30.4,30.03,West,270,3.8,15.2,71,0.00,,SKC,0.00,VWS V14.01,2013-02-13 14:51:00,
2013-02-13 08:56:00,39.7,30.1,30.03,NW,315,2.7,10.7,68,0.00,,SKC,0.00,VWS V14.01,2013-02-13 14:56:00,
2013-02-13 09:01:00,41.2,30.7,30.03,SW,225,2.5,9.8,66,0.00,,SKC,0.00,VWS V14.01,2013-02-13 15:01:00,
2013-02-13 09:06:00,42.8,30.3,30.03,WSW,248,5.8,23.3,61,0.00,,SKC,0.00,VWS V14.01,2013-02-13 15:06:00,
2013-02-13 09:11:00,44.4,30.6,30.03,WSW,248,1.3,5.4,58,0.00,,SKC,0.00,VWS V14.01,2013-02-13 15:11:00,
2013-02-13 09:16:00,45.0,29.3,30.03,West,270,4.0,16.1,54,0.00,,SKC,0.00,VWS V14.01,2013-02-13 15:16:00,
2013-02-13 09:21:00,45.7,30.0,30.03,SW,225,1.1,4.5,54,0.00,,SKC,0.00,VWS V14.01,2013-02-13 15:21:00,
2013-02-13 09:26:00,46.6,29.9,30.03,SSE,158,2.9,11.6,52,0.00,,SKC,0.00,VWS V14.01,2013-02-13 15:26:00,
2013-02-13 09:31:00,46.2,28.6,30.03,WSW,248,1.6,6.3,50,0.00,,SKC,0.00,VWS V14.01,2013-02-13 15:31:00,
2013-02-13 09:36:00,46.8,28.1,30.03,WSW,248,2.5,9.8,48,0.00,,SKC,0.00,VWS V14.01,2013-02-13 15:36:00,
2013-02-13 09:41:00,47.7,29.0,30.03,SW,225,2.5,9.8,48,0.00,,SKC,0.00,VWS V14.01,2013-02-13 15:41:00,
2013-02-13 09:46:00,46.9,27.8,30.03,NNW,338,3.1,12.5,47,0.00,,SKC,0.00,VWS V14.01,2013-02-13 15:46:00,
2013-02-13 09:51:00,47.8,28.6,30.00,WSW,248,2.9,11.6,47,0.00,,SKC,0.00,VWS V14.01,2013-02-13 15:51:00,
2013-02-13 09:56:00,47.8,27.5,30.00,WSW,248,5.4,21.5,45,0.00,,SKC,0.00,VWS V14.01,2013-02-13 15:56:00,
2013-02-13 10:01:00,48.0,27.7,30.00,West,270,1.6,6.3,45,0.00,,SKC,0.00,VWS V14.01,2013-02-13 16:01:00,
2013-02-13 10:06:00,49.6,28.6,30.00,SSW,202,2.7,10.7,44,0.00,,SKC,0.00,VWS V14.01,2013-02-13 16:06:00,
2013-02-13 10:11:00,50.7,28.5,30.00,South,180,1.1,4.5,42,0.00,,SKC,0.00,VWS V14.01,2013-02-13 16:11:00,
2013-02-13 10:16:00,52.3,29.4,30.00,WSW,248,2.9,11.6,41,0.00,,SKC,0.00,VWS V14.01,2013-02-13 16:16:00,
2013-02-13 10:21:00,53.8,30.0,30.00,WSW,248,2.7,10.7,40,0.00,,SKC,0.00,VWS V14.01,2013-02-13 16:21:00,
2013-02-13 10:26:00,54.5,30.1,30.00,WNW,292,3.1,12.5,39,0.00,,SKC,0.00,VWS V14.01,2013-02-13 16:26:00,
2013-02-13 10:31:00,55.0,29.3,30.00,SSW,202,1.6,6.3,37,0.00,,SKC,0.00,VWS V14.01,2013-02-13 16:31:00,
2013-02-13 10:36:00,55.8,29.9,30.00,SW,225,3.1,12.5,37,0.00,,SKC,0.00,VWS V14.01,2013-02-13 16:36:00,
2013-02-13 10:41:00,56.5,30.5,30.00,WSW,248,2.5,9.8,37,0.00,,SKC,0.00,VWS V14.01,2013-02-13 16:41:00,
2013-02-13 10:46:00,56.3,29.7,30.00,WSW,248,6.3,25.1,36,0.00,,SKC,0.00,VWS V14.01,2013-02-13 16:46:00,
2013-02-13 10:51:00,56.1,28.9,30.00,West,270,4.7,18.8,35,0.00,,SKC,0.00,VWS V14.01,2013-02-13 16:51:00,
2013-02-13 10:56:00,57.9,30.5,30.00,North,0,1.6,6.3,35,0.00,,SKC,0.00,VWS V14.01,2013-02-13 16:56:00,
2013-02-13 11:01:00,58.1,30.6,30.00,West,270,6.0,24.2,35,0.00,,SKC,0.00,VWS V14.01,2013-02-13 17:01:00,
2013-02-13 11:06:00,59.5,31.2,30.00,WSW,248,1.6,6.3,34,0.00,,SKC,0.00,VWS V14.01,2013-02-13 17:06:00,
2013-02-13 11:11:00,59.4,30.3,30.00,WSW,248,2.9,11.6,33,0.00,,SKC,0.00,VWS V14.01,2013-02-13 17:11:00,
2013-02-13 11:16:00,59.7,30.6,30.00,SE,135,2.5,9.8,33,0.00,,SKC,0.00,VWS V14.01,2013-02-13 17:16:00,
2013-02-13 11:21:00,59.2,28.6,29.97,WSW,248,2.2,9.0,31,0.00,,SKC,0.00,VWS V14.01,2013-02-13 17:21:00,
2013-02-13 11:26:00,59.4,27.1,29.97,SSW,202,1.6,6.3,29,0.00,,SKC,0.00,VWS V14.01,2013-02-13 17:26:00,
2013-02-13 11:31:00,59.7,27.4,29.97,SW,225,2.7,10.7,29,0.00,,SKC,0.00,VWS V14.01,2013-02-13 17:31:00,
2013-02-13 11:36:00,59.2,26.1,30.00,SW,225,3.6,14.3,28,0.00,,SKC,0.00,VWS V14.01,2013-02-13 17:36:00,
2013-02-13 11:41:00,59.2,24.3,30.00,South,180,1.6,6.3,26,0.00,,SKC,0.00,VWS V14.01,2013-02-13 17:41:00,
2013-02-13 11:46:00,59.4,24.5,30.00,South,180,2.9,11.6,26,0.00,,SKC,0.00,VWS V14.01,2013-02-13 17:46:00,
2013-02-13 11:51:00,59.5,25.5,30.00,SSW,202,1.6,6.3,27,0.00,,SKC,0.00,VWS V14.01,2013-02-13 17:51:00,
2013-02-13 11:56:00,59.2,24.3,30.00,SW,225,2.7,10.7,26,0.00,,SKC,0.00,VWS V14.01,2013-02-13 17:56:00,
2013-02-13 12:01:00,59.4,25.4,30.00,NE,45,2.2,9.0,27,0.00,,SKC,0.00,VWS V14.01,2013-02-13 18:01:00,
2013-02-13 12:06:00,58.6,23.9,30.00,WSW,248,3.4,13.4,26,0.00,,SKC,0.00,VWS V14.01,2013-02-13 18:06:00,
2013-02-13 12:11:00,58.5,23.7,30.00,WSW,248,6.0,24.2,26,0.00,,SKC,0.00,VWS V14.01,2013-02-13 18:11:00,
2013-02-13 12:16:00,58.8,24.0,30.00,WSW,248,4.3,17.0,26,0.00,,SKC,0.00,VWS V14.01,2013-02-13 18:16:00,
2013-02-13 12:21:00,57.6,23.0,29.97,SSW,202,3.1,12.5,26,0.00,,SKC,0.00,VWS V14.01,2013-02-13 18:21:00,
2013-02-13 12:26:00,58.6,23.9,29.97,WSW,248,1.6,6.3,26,0.00,,SKC,0.00,VWS V14.01,2013-02-13 18:26:00,
2013-02-13 12:31:00,58.8,23.1,29.97,South,180,2.7,10.7,25,0.00,,SKC,0.00,VWS V14.01,2013-02-13 18:31:00,
2013-02-13 12:36:00,58.1,22.5,29.97,SSW,202,4.3,17.0,25,0.00,,SKC,0.00,VWS V14.01,2013-02-13 18:36:00,
2013-02-13 12:41:00,58.5,22.8,29.97,South,180,4.0,16.1,25,0.00,,SKC,0.00,VWS V14.01,2013-02-13 18:41:00,
2013-02-13 12:46:00,58.6,23.9,29.97,SW,225,2.2,9.0,26,0.00,,SKC,0.00,VWS V14.01,2013-02-13 18:46:00,
2013-02-13 12:51:00,57.7,21.2,29.94,WSW,248,5.8,23.3,24,0.00,,SKC,0.00,VWS V14.01,2013-02-13 18:51:00,
2013-02-13 12:56:00,57.7,23.1,29.94,South,180,3.4,13.4,26,0.00,,SKC,0.00,VWS V14.01,2013-02-13 18:56:00,
2013-02-13 13:01:00,57.6,22.0,29.94,SW,225,6.0,24.2,25,0.00,,SKC,0.00,VWS V14.01,2013-02-13 19:01:00,
2013-02-13 13:06:00,56.8,21.4,29.94,WSW,248,2.9,11.6,25,0.00,,SKC,0.00,VWS V14.01,2013-02-13 19:06:00,
2013-02-13 13:11:00,57.4,21.9,29.94,SW,225,4.3,17.0,25,0.00,,SKC,0.00,VWS V14.01,2013-02-13 19:11:00,
2013-02-13 13:16:00,57.2,21.7,29.94,WSW,248,2.0,8.1,25,0.00,,SKC,0.00,VWS V14.01,2013-02-13 19:16:00,
2013-02-13 13:21:00,57.7,22.2,29.94,WSW,248,1.3,5.4,25,0.00,,SKC,0.00,VWS V14.01,2013-02-13 19:21:00,
2013-02-13 13:26:00,57.4,20.9,29.94,WSW,248,5.8,23.3,24,0.00,,SKC,0.00,VWS V14.01,2013-02-13 19:26:00,
2013-02-13 13:31:00,57.6,21.1,29.94,West,270,1.6,6.3,24,0.00,,SKC,0.00,VWS V14.01,2013-02-13 19:31:00,
2013-02-13 13:36:00,57.4,20.9,29.94,SW,225,2.5,9.8,24,0.00,,SKC,0.00,VWS V14.01,2013-02-13 19:36:00,
2013-02-13 13:41:00,57.6,19.0,29.94,WSW,248,3.8,15.2,22,0.00,,SKC,0.00,VWS V14.01,2013-02-13 19:41:00,
2013-02-13 13:46:00,57.7,21.2,29.94,NW,315,2.9,11.6,24,0.00,,SKC,0.00,VWS V14.01,2013-02-13 19:46:00,
2013-02-13 13:51:00,58.1,16.1,29.94,WNW,292,4.0,16.1,19,0.00,,SKC,0.00,VWS V14.01,2013-02-13 19:51:00,
2013-02-13 13:56:00,58.1,19.5,29.94,WSW,248,3.4,13.4,22,0.00,,SKC,0.00,VWS V14.01,2013-02-13 19:56:00,
2013-02-13 14:01:00,57.9,13.4,29.94,SSW,202,3.8,15.2,17,0.00,,SKC,0.00,VWS V14.01,2013-02-13 20:01:00,
2013-02-13 14:06:00,57.9,13.4,29.94,South,180,2.5,9.8,17,0.00,,SKC,0.00,VWS V14.01,2013-02-13 20:06:00,
2013-02-13 14:11:00,58.3,13.7,29.94,WNW,292,4.9,19.7,17,0.00,,SKC,0.00,VWS V14.01,2013-02-13 20:11:00,
2013-02-13 14:16:00,58.3,19.6,29.94,WSW,248,3.4,13.4,22,0.00,,SKC,0.00,VWS V14.01,2013-02-13 20:16:00,
2013-02-13 14:21:00,57.9,19.3,29.94,WSW,248,3.8,15.2,22,0.00,,SKC,0.00,VWS V14.01,2013-02-13 20:21:00,
2013-02-13 14:26:00,56.7,16.1,29.94,WSW,248,6.0,24.2,20,0.00,,SKC,0.00,VWS V14.01,2013-02-13 20:26:00,
2013-02-13 14:31:00,57.0,18.6,29.94,WSW,248,4.5,17.9,22,0.00,,SKC,0.00,VWS V14.01,2013-02-13 20:31:00,
2013-02-13 14:36:00,57.2,20.8,29.94,WSW,248,2.7,10.7,24,0.00,,SKC,0.00,VWS V14.01,2013-02-13 20:36:00,
2013-02-13 14:41:00,57.2,21.7,29.94,SW,225,2.9,11.6,25,0.00,,SKC,0.00,VWS V14.01,2013-02-13 20:41:00,
2013-02-13 14:46:00,57.7,22.2,29.94,South,180,2.7,10.7,25,0.00,,SKC,0.00,VWS V14.01,2013-02-13 20:46:00,
2013-02-13 14:51:00,57.6,21.1,29.94,WSW,248,4.3,17.0,24,0.00,,SKC,0.00,VWS V14.01,2013-02-13 20:51:00,
2013-02-13 14:56:00,57.7,19.2,29.94,SW,225,2.9,11.6,22,0.00,,SKC,0.00,VWS V14.01,2013-02-13 20:56:00,
2013-02-13 15:01:00,57.2,18.7,29.94,West,270,2.7,10.7,22,0.00,,SKC,0.00,VWS V14.01,2013-02-13 21:01:00,
2013-02-13 15:06:00,57.2,18.7,29.94,WSW,248,3.4,13.4,22,0.00,,SKC,0.00,VWS V14.01,2013-02-13 21:06:00,
2013-02-13 15:11:00,57.2,18.7,29.94,WSW,248,3.8,15.2,22,0.00,,SKC,0.00,VWS V14.01,2013-02-13 21:11:00,
2013-02-13 15:16:00,56.8,12.5,29.94,West,270,4.3,17.0,17,0.00,,SKC,0.00,VWS V14.01,2013-02-13 21:16:00,
2013-02-13 15:21:00,56.7,16.1,29.94,WSW,248,4.5,17.9,20,0.00,,SKC,0.00,VWS V14.01,2013-02-13 21:21:00,
2013-02-13 15:26:00,56.7,21.3,29.94,West,270,2.5,9.8,25,0.00,,SKC,0.00,VWS V14.01,2013-02-13 21:26:00,
2013-02-13 15:31:00,57.0,18.6,29.94,West,270,2.9,11.6,22,0.00,,SKC,0.00,VWS V14.01,2013-02-13 21:31:00,
2013-02-13 15:36:00,56.7,12.4,29.94,WSW,248,5.8,23.3,17,0.00,,SKC,0.00,VWS V14.01,2013-02-13 21:36:00,
2013-02-13 15:41:00,56.5,18.1,29.94,West,270,5.4,21.5,22,0.00,,SKC,0.00,VWS V14.01,2013-02-13 21:41:00,
2013-02-13 15:46:00,56.5,15.9,29.94,SW,225,6.0,24.2,20,0.00,,SKC,0.00,VWS V14.01,2013-02-13 21:46:00,
2013-02-13 15:51:00,56.3,18.0,29.94,SW,225,4.3,17.0,22,0.00,,SKC,0.00,VWS V14.01,2013-02-13 21:51:00,
2013-02-13 15:56:00,56.5,15.9,29.94,SW,225,4.0,16.1,20,0.00,,SKC,0.00,VWS V14.01,2013-02-13 21:56:00,
2013-02-13 16:01:00,56.1,15.6,29.94,NW,315,2.5,9.8,20,0.00,,SKC,0.00,VWS V14.01,2013-02-13 22:01:00,
2013-02-13 16:06:00,56.1,20.8,29.91,WNW,292,3.1,12.5,25,0.00,,SKC,0.00,VWS V14.01,2013-02-13 22:06:00,
2013-02-13 16:11:00,55.9,20.6,29.91,SW,225,3.8,15.2,25,0.00,,SKC,0.00,VWS V14.01,2013-02-13 22:11:00,
2013-02-13 16:16:00,55.8,20.5,29.91,West,270,4.0,16.1,25,0.00,,SKC,0.00,VWS V14.01,2013-02-13 22:16:00,
2013-02-13 16:21:00,55.2,20.0,29.91,WSW,248,3.6,14.3,25,0.00,,SKC,0.00,VWS V14.01,2013-02-13 22:21:00,
2013-02-13 16:26:00,55.2,21.0,29.91,South,180,2.9,11.6,26,0.00,,SKC,0.00,VWS V14.01,2013-02-13 22:26:00,
2013-02-13 16:31:00,55.0,20.8,29.91,SSW,202,3.8,15.2,26,0.00,,SKC,0.00,VWS V14.01,2013-02-13 22:31:00,
2013-02-13 16:36:00,54.5,20.3,29.94,WSW,248,3.6,14.3,26,0.00,,SKC,0.00,VWS V14.01,2013-02-13 22:36:00,
2013-02-13 16:41:00,54.1,20.0,29.94,WSW,248,5.8,23.3,26,0.00,,SKC,0.00,VWS V14.01,2013-02-13 22:41:00,
2013-02-13 16:46:00,54.0,20.8,29.94,WSW,248,3.1,12.5,27,0.00,,SKC,0.00,VWS V14.01,2013-02-13 22:46:00,
2013-02-13 16:51:00,53.8,20.6,29.94,WSW,248,2.9,11.6,27,0.00,,SKC,0.00,VWS V14.01,2013-02-13 22:51:00,
2013-02-13 16:56:00,53.4,20.3,29.94,WSW,248,3.1,12.5,27,0.00,,SKC,0.00,VWS V14.01,2013-02-13 22:56:00,
2013-02-13 17:01:00,53.1,20.8,29.94,WSW,248,4.0,16.1,28,0.00,,SKC,0.00,VWS V14.01,2013-02-13 23:01:00,
2013-02-13 17:06:00,52.7,20.5,29.94,West,270,4.3,17.0,28,0.00,,SKC,0.00,VWS V14.01,2013-02-13 23:06:00,
2013-02-13 17:11:00,52.3,20.2,29.94,West,270,7.4,29.5,28,0.00,,SKC,0.00,VWS V14.01,2013-02-13 23:11:00,
2013-02-13 17:16:00,51.8,20.6,29.94,WSW,248,1.6,6.3,29,0.00,,SKC,0.00,VWS V14.01,2013-02-13 23:16:00,
2013-02-13 17:21:00,51.4,21.1,29.94,NW,315,5.8,23.3,30,0.00,,SKC,0.00,VWS V14.01,2013-02-13 23:21:00,
2013-02-13 17:26:00,51.3,20.9,29.94,WSW,248,3.4,13.4,30,0.00,,SKC,0.00,VWS V14.01,2013-02-13 23:26:00,
2013-02-13 17:31:00,50.7,20.4,29.94,SW,225,2.5,9.8,30,0.00,,SKC,0.00,VWS V14.01,2013-02-13 23:31:00,
2013-02-13 17:36:00,50.4,20.9,29.94,WNW,292,3.1,12.5,31,0.00,,SKC,0.00,VWS V14.01,2013-02-13 23:36:00,
2013-02-13 17:41:00,50.0,20.6,29.94,WSW,248,2.7,10.7,31,0.00,,SKC,0.00,VWS V14.01,2013-02-13 23:41:00,
2013-02-13 17:46:00,49.6,21.0,29.94,WNW,292,5.6,22.4,32,0.00,,SKC,0.00,VWS V14.01,2013-02-13 23:46:00,
2013-02-13 17:51:00,49.1,21.3,29.94,SW,225,1.6,6.3,33,0.00,,SKC,0.00,VWS V14.01,2013-02-13 23:51:00,
2013-02-13 17:56:00,48.7,20.9,29.94,West,270,3.1,12.5,33,0.00,,SKC,0.00,VWS V14.01,2013-02-13 23:56:00,
2013-02-13 18:01:00,48.6,22.2,29.94,WSW,248,2.9,11.6,35,0.00,,SKC,0.00,VWS V14.01,2013-02-14 00:01:00,
2013-02-13 18:06:00,48.6,22.2,29.94,SW,225,1.3,5.4,35,0.00,,SKC,0.00,VWS V14.01,2013-02-14 00:06:00,
2013-02-13 18:11:00,47.8,22.2,29.94,SW,225,0.0,0.0,36,0.00,,SKC,0.00,VWS V14.01,2013-02-14 00:11:00,
2013-02-13 18:16:00,47.5,22.5,29.94,WSW,248,1.1,4.5,37,0.00,,SKC,0.00,VWS V14.01,2013-02-14 00:16:00,
2013-02-13 18:21:00,47.3,22.4,29.97,WSW,248,2.0,8.1,37,0.00,,SKC,0.00,VWS V14.01,2013-02-14 00:21:00,
2013-02-13 18:26:00,46.6,21.7,29.97,WSW,248,0.0,0.0,37,0.00,,SKC,0.00,VWS V14.01,2013-02-14 00:26:00,
2013-02-13 18:31:00,46.0,21.9,29.97,SW,225,0.0,0.0,38,0.00,,SKC,0.00,VWS V14.01,2013-02-14 00:31:00,
2013-02-13 18:36:00,45.7,21.5,29.97,SW,225,0.0,0.0,38,0.00,,SKC,0.00,VWS V14.01,2013-02-14 00:36:00,
2013-02-13 18:41:00,45.0,20.9,29.97,WSW,248,0.0,0.0,38,0.00,,SKC,0.00,VWS V14.01,2013-02-14 00:41:00,
2013-02-13 18:46:00,44.1,20.7,29.97,WSW,248,0.0,0.0,39,0.00,,SKC,0.00,VWS V14.01,2013-02-14 00:46:00,
2013-02-13 18:51:00,43.5,20.2,29.97,WSW,248,0.0,0.0,39,0.00,,SKC,0.00,VWS V14.01,2013-02-14 00:51:00,
2013-02-13 18:56:00,42.8,19.6,29.97,WSW,248,0.0,0.0,39,0.00,,SKC,0.00,VWS V14.01,2013-02-14 00:56:00,
2013-02-13 19:01:00,42.3,19.7,29.97,WSW,248,0.0,0.0,40,0.00,,SKC,0.00,VWS V14.01,2013-02-14 01:01:00,
2013-02-13 19:06:00,42.1,19.5,30.00,WSW,248,1.1,4.5,40,0.00,,SKC,0.00,VWS V14.01,2013-02-14 01:06:00,
2013-02-13 19:11:00,41.5,19.6,30.00,WSW,248,0.0,0.0,41,0.00,,SKC,0.00,VWS V14.01,2013-02-14 01:11:00,
2013-02-13 19:16:00,41.0,19.1,30.00,WSW,248,0.0,0.0,41,0.00,,SKC,0.00,VWS V14.01,2013-02-14 01:16:00,
2013-02-13 19:21:00,41.0,19.1,30.00,SSW,202,0.0,0.0,41,0.00,,SKC,0.00,VWS V14.01,2013-02-14 01:21:00,
2013-02-13 19:26:00,41.7,20.9,30.00,SSW,202,1.3,5.4,43,0.00,,SKC,0.00,VWS V14.01,2013-02-14 01:26:00,
2013-02-13 19:31:00,42.4,23.1,30.00,SW,225,2.0,8.1,46,0.00,,SKC,0.00,VWS V14.01,2013-02-14 01:31:00,
2013-02-13 19:36:00,43.0,24.6,30.00,SW,225,1.3,5.4,48,0.00,,SKC,0.00,VWS V14.01,2013-02-14 01:36:00,
2013-02-13 19:41:00,43.3,25.0,30.00,SW,225,0.0,0.0,48,0.00,,SKC,0.00,VWS V14.01,2013-02-14 01:41:00,
2013-02-13 19:46:00,42.6,24.3,30.00,SW,225,0.0,0.0,48,0.00,,SKC,0.00,VWS V14.01,2013-02-14 01:46:00,
2013-02-13 19:51:00,43.0,25.1,30.00,SW,225,1.6,6.3,49,0.00,,SKC,0.00,VWS V14.01,2013-02-14 01:51:00,
2013-02-13 19:56:00,43.2,25.3,30.00,WSW,248,3.8,15.2,49,0.00,,SKC,0.00,VWS V14.01,2013-02-14 01:56:00,
2013-02-13 20:01:00,43.3,26.0,30.00,WSW,248,1.1,4.5,50,0.00,,SKC,0.00,VWS V14.01,2013-02-14 02:01:00,
2013-02-13 20:06:00,43.0,25.6,30.00,SW,225,1.3,5.4,50,0.00,,SKC,0.00,VWS V14.01,2013-02-14 02:06:00,
2013-02-13 20:11:00,42.8,25.5,30.00,SW,225,2.9,11.6,50,0.00,,SKC,0.00,VWS V14.01,2013-02-14 02:11:00,
2013-02-13 20:16:00,43.3,26.9,30.00,SW,225,4.3,17.0,52,0.00,,SKC,0.00,VWS V14.01,2013-02-14 02:16:00,
2013-02-13 20:21:00,43.0,26.1,29.97,West,270,4.3,17.0,51,0.00,,SKC,0.00,VWS V14.01,2013-02-14 02:21:00,
2013-02-13 20:26:00,43.2,26.7,29.97,SW,225,1.6,6.3,52,0.00,,SKC,0.00,VWS V14.01,2013-02-14 02:26:00,
2013-02-13 20:31:00,43.2,26.7,29.97,SW,225,2.0,8.1,52,0.00,,SKC,0.00,VWS V14.01,2013-02-14 02:31:00,
2013-02-13 20:36:00,43.0,26.6,30.00,SW,225,1.1,4.5,52,0.00,,SKC,0.00,VWS V14.01,2013-02-14 02:36:00,
2013-02-13 20:41:00,42.3,25.9,30.00,WSW,248,3.1,12.5,52,0.00,,SKC,0.00,VWS V14.01,2013-02-14 02:41:00,
2013-02-13 20:46:00,42.4,26.5,30.00,WSW,248,2.0,8.1,53,0.00,,SKC,0.00,VWS V14.01,2013-02-14 02:46:00,
2013-02-13 20:51:00,42.8,26.9,30.00,SSW,202,2.5,9.8,53,0.00,,SKC,0.00,VWS V14.01,2013-02-14 02:51:00,
2013-02-13 20:56:00,42.6,27.1,30.00,WSW,248,2.2,9.0,54,0.00,,SKC,0.00,VWS V14.01,2013-02-14 02:56:00,
2013-02-13 21:01:00,42.4,27.0,30.00,WSW,248,2.9,11.6,54,0.00,,SKC,0.00,VWS V14.01,2013-02-14 03:01:00,
2013-02-13 21:06:00,42.3,26.8,30.00,WSW,248,2.2,9.0,54,0.00,,SKC,0.00,VWS V14.01,2013-02-14 03:06:00,
2013-02-13 21:11:00,42.3,26.8,30.00,SW,225,3.1,12.5,54,0.00,,SKC,0.00,VWS V14.01,2013-02-14 03:11:00,
2013-02-13 21:16:00,42.3,27.3,30.00,WSW,248,0.9,3.6,55,0.00,,SKC,0.00,VWS V14.01,2013-02-14 03:16:00,
2013-02-13 21:21:00,42.3,26.8,30.00,WSW,248,1.3,5.4,54,0.00,,SKC,0.00,VWS V14.01,2013-02-14 03:21:00,
2013-02-13 21:26:00,41.9,26.9,30.00,SW,225,2.9,11.6,55,0.00,,SKC,0.00,VWS V14.01,2013-02-14 03:26:00,
2013-02-13 21:31:00,42.1,27.1,30.00,SW,225,2.5,9.8,55,0.00,,SKC,0.00,VWS V14.01,2013-02-14 03:31:00,
2013-02-13 21:36:00,41.5,26.1,29.97,SW,225,1.1,4.5,54,0.00,,SKC,0.00,VWS V14.01,2013-02-14 03:36:00,
2013-02-13 21:41:00,41.4,26.4,29.97,West,270,2.7,10.7,55,0.00,,SKC,0.00,VWS V14.01,2013-02-14 03:41:00,
2013-02-13 21:46:00,41.5,27.0,29.97,SW,225,3.4,13.4,56,0.00,,SKC,0.00,VWS V14.01,2013-02-14 03:46:00,
2013-02-13 21:51:00,41.5,27.0,29.97,WSW,248,2.0,8.1,56,0.00,,SKC,0.00,VWS V14.01,2013-02-14 03:51:00,
2013-02-13 21:56:00,41.0,26.1,29.97,SW,225,0.9,3.6,55,0.00,,SKC,0.00,VWS V14.01,2013-02-14 03:56:00,
2013-02-13 22:01:00,40.8,26.4,29.97,SW,225,1.6,6.3,56,0.00,,SKC,0.00,VWS V14.01,2013-02-14 04:01:00,
2013-02-13 22:06:00,40.5,26.0,30.00,WSW,248,2.0,8.1,56,0.00,,SKC,0.00,VWS V14.01,2013-02-14 04:06:00,
2013-02-13 22:11:00,40.5,26.4,30.00,SW,225,1.3,5.4,57,0.00,,SKC,0.00,VWS V14.01,2013-02-14 04:11:00,
2013-02-13 22:16:00,40.5,26.4,30.00,ESE,112,0.9,3.6,57,0.00,,SKC,0.00,VWS V14.01,2013-02-14 04:16:00,
2013-02-13 22:21:00,40.1,26.1,30.00,WSW,248,0.0,0.0,57,0.00,,SKC,0.00,VWS V14.01,2013-02-14 04:21:00,
2013-02-13 22:26:00,39.4,25.4,30.00,SW,225,1.1,4.5,57,0.00,,SKC,0.00,VWS V14.01,2013-02-14 04:26:00,
2013-02-13 22:31:00,39.4,25.9,30.00,South,180,1.6,6.3,58,0.00,,SKC,0.00,VWS V14.01,2013-02-14 04:31:00,
2013-02-13 22:36:00,39.4,25.9,29.97,WSW,248,0.0,0.0,58,0.00,,SKC,0.00,VWS V14.01,2013-02-14 04:36:00,
2013-02-13 22:41:00,39.6,26.8,29.97,SW,225,1.1,4.5,60,0.00,,SKC,0.00,VWS V14.01,2013-02-14 04:41:00,
2013-02-13 22:46:00,39.6,26.8,29.97,WSW,248,0.0,0.0,60,0.00,,SKC,0.00,VWS V14.01,2013-02-14 04:46:00,
2013-02-13 22:51:00,39.4,26.7,29.97,SW,225,0.9,3.6,60,0.00,,SKC,0.00,VWS V14.01,2013-02-14 04:51:00,
2013-02-13 22:56:00,39.0,26.3,29.97,SW,225,0.0,0.0,60,0.00,,SKC,0.00,VWS V14.01,2013-02-14 04:56:00,
2013-02-13 23:00:00,39.0,26.3,29.97,SSW,202,0.0,0.0,60,0.00,,SKC,0.00,VWS V14.01,2013-02-14 05:00:00,
2013-02-13 23:05:00,38.5,25.8,30.00,SW,225,2.9,11.6,60,0.00,,SKC,0.00,VWS V14.01,2013-02-14 05:05:00,
2013-02-13 23:10:00,38.7,26.4,30.00,WSW,248,0.0,0.0,61,0.00,,SKC,0.00,VWS V14.01,2013-02-14 05:10:00,
2013-02-13 23:15:00,38.7,26.8,30.00,SSW,202,1.3,5.4,62,0.00,,SKC,0.00,VWS V14.01,2013-02-14 05:15:00,
2013-02-13 23:20:00,38.8,27.0,30.00,SW,225,0.0,0.0,62,0.00,,SKC,0.00,VWS V14.01,2013-02-14 05:20:00,
2013-02-13 23:25:00,38.7,26.4,30.00,SW,225,0.9,3.6,61,0.00,,SKC,0.00,VWS V14.01,2013-02-14 05:25:00,
2013-02-13 23:30:00,38.3,26.0,30.00,SW,225,0.0,0.0,61,0.00,,SKC,0.00,VWS V14.01,2013-02-14 05:30:00,
2013-02-13 23:35:00,38.1,25.9,30.00,South,180,0.0,0.0,61,0.00,,SKC,0.00,VWS V14.01,2013-02-14 05:35:00,
2013-02-13 23:40:00,38.1,25.9,30.00,South,180,0.0,0.0,61,0.00,,SKC,0.00,VWS V14.01,2013-02-14 05:40:00,
2013-02-13 23:45:00,37.8,25.5,30.00,SSE,158,0.0,0.0,61,0.00,,SKC,0.00,VWS V14.01,2013-02-14 05:45:00,
2013-02-13 23:50:00,37.6,25.4,30.00,SSE,158,0.9,3.6,61,0.00,,SKC,0.00,VWS V14.01,2013-02-14 05:50:00,
2013-02-13 23:55:00,37.6,25.4,30.00,SSW,202,0.0,0.0,61,0.00,,SKC,0.00,VWS V14.01,2013-02-14 05:55:00,